createdAt,value
2023-05-09T00:01:33.274Z,16.30
2023-05-09T00:05:40.658Z,16.30
2023-05-09T00:09:47.410Z,16.20
2023-05-09T00:13:54.097Z,16.20
2023-05-09T00:18:00.748Z,16.10
2023-05-09T00:22:09.145Z,16.10
2023-05-09T00:26:16.542Z,16.10
2023-05-09T00:30:23.292Z,16.10
2023-05-09T00:34:29.966Z,16.10
2023-05-09T00:38:36.609Z,16.10
2023-05-09T00:42:43.261Z,16.10
2023-05-09T00:46:49.897Z,16.10
2023-05-09T00:50:56.652Z,16.10
2023-05-09T00:55:04.395Z,16.10
2023-05-09T00:59:11.584Z,16.10
2023-05-09T01:03:18.459Z,16.10
2023-05-09T01:07:43.373Z,16.10
2023-05-09T01:12:10.096Z,16.20
2023-05-09T01:16:30.094Z,16.20
2023-05-09T01:20:47.508Z,16.20
2023-05-09T01:25:13.050Z,16.10
2023-05-09T01:29:39.362Z,16.10
2023-05-09T01:33:51.796Z,16.00
2023-05-09T01:37:59.317Z,16.00
2023-05-09T01:42:09.587Z,16.00
2023-05-09T01:46:18.242Z,16.00
2023-05-09T01:50:25.947Z,16.00
2023-05-09T01:54:34.506Z,16.00
2023-05-09T01:58:42.356Z,16.00
2023-05-09T02:02:49.835Z,16.00
2023-05-09T02:06:57.728Z,16.00
2023-05-09T02:11:04.397Z,15.90
2023-05-09T02:15:11.297Z,15.90
2023-05-09T02:19:18.019Z,15.90
2023-05-09T02:23:24.813Z,15.90
2023-05-09T02:27:33.971Z,15.90
2023-05-09T02:31:42.500Z,15.90
2023-05-09T02:35:50.729Z,15.90
2023-05-09T02:39:58.175Z,16.00
2023-05-09T02:44:05.159Z,16.00
2023-05-09T02:48:11.942Z,16.00
2023-05-09T02:52:18.716Z,15.90
2023-05-09T02:56:25.410Z,15.90
2023-05-09T03:00:32.058Z,15.90
2023-05-09T03:04:38.817Z,15.80
2023-05-09T03:08:45.474Z,15.80
2023-05-09T03:12:52.182Z,15.80
2023-05-09T03:16:58.952Z,15.80
2023-05-09T03:21:05.930Z,15.90
2023-05-09T03:25:12.909Z,15.90
2023-05-09T03:29:19.823Z,16.00
2023-05-09T03:33:26.540Z,16.00
2023-05-09T03:37:33.203Z,16.00
2023-05-09T03:41:39.901Z,16.00
2023-05-09T03:45:46.639Z,16.40
2023-05-09T03:49:53.685Z,16.00
2023-05-09T03:54:00.491Z,15.90
2023-05-09T03:58:07.303Z,16.00
2023-05-09T04:02:14.007Z,16.00
2023-05-09T04:06:20.821Z,15.90
2023-05-09T04:10:27.519Z,15.90
2023-05-09T04:14:34.186Z,16.00
2023-05-09T04:18:42.240Z,15.90
2023-05-09T04:22:48.905Z,17.10
2023-05-09T04:26:55.646Z,16.00
2023-05-09T04:31:02.996Z,16.00
2023-05-09T04:35:09.935Z,16.10
2023-05-09T04:39:16.585Z,16.10
2023-05-09T04:43:23.526Z,16.10
2023-05-09T04:47:30.196Z,16.10
2023-05-09T04:51:36.895Z,16.10
2023-05-09T04:55:43.695Z,16.10
2023-05-09T04:59:50.589Z,16.10
2023-05-09T05:03:57.344Z,16.10
2023-05-09T05:08:04.271Z,16.10
2023-05-09T05:12:11.057Z,16.10
2023-05-09T05:16:17.841Z,16.10
2023-05-09T05:20:24.584Z,16.10
2023-05-09T05:24:31.249Z,16.20
2023-05-09T05:28:37.983Z,16.20
2023-05-09T05:32:44.916Z,16.30
2023-05-09T05:36:51.845Z,16.30
2023-05-09T05:40:58.498Z,16.30
2023-05-09T05:45:05.868Z,16.40
2023-05-09T05:49:12.557Z,16.40
2023-05-09T05:53:19.239Z,16.40
2023-05-09T05:57:25.895Z,16.50
2023-05-09T06:01:32.589Z,16.60
2023-05-09T06:05:42.517Z,16.70
2023-05-09T06:09:49.184Z,16.90
2023-05-09T06:13:55.852Z,17.10
2023-05-09T06:18:02.667Z,17.30
2023-05-09T06:22:09.361Z,17.60
2023-05-09T06:26:16.024Z,17.70
2023-05-09T06:30:26.620Z,17.80
2023-05-09T06:34:33.814Z,17.70
2023-05-09T06:38:40.501Z,17.70
2023-05-09T06:42:47.197Z,17.60
2023-05-09T06:46:53.975Z,17.50
2023-05-09T06:51:00.861Z,17.40
2023-05-09T06:55:08.456Z,17.40
2023-05-09T06:59:16.783Z,17.60
2023-05-09T07:03:23.517Z,17.80
2023-05-09T07:07:30.187Z,18.20
2023-05-09T07:11:37.527Z,18.40
2023-05-09T07:15:44.437Z,18.70
2023-05-09T07:19:51.665Z,18.90
2023-05-09T07:23:58.341Z,19.00
2023-05-09T07:28:05.345Z,19.00
2023-05-09T07:32:12.132Z,19.10
2023-05-09T07:36:18.938Z,19.10
2023-05-09T07:40:25.611Z,19.10
2023-05-09T07:44:32.315Z,19.20
2023-05-09T07:48:39.123Z,19.30
2023-05-09T07:52:45.833Z,19.50
2023-05-09T07:56:52.893Z,19.30
2023-05-09T08:00:59.580Z,19.40
2023-05-09T08:05:06.801Z,19.40
2023-05-09T08:09:13.539Z,19.30
2023-05-09T08:13:20.951Z,19.30
2023-05-09T08:17:27.824Z,19.40
2023-05-09T08:21:34.538Z,19.60
2023-05-09T08:25:41.324Z,19.80
2023-05-09T08:29:48.034Z,20.00
2023-05-09T08:33:54.888Z,20.20
2023-05-09T08:38:01.560Z,20.20
2023-05-09T08:42:09.639Z,20.30
2023-05-09T08:46:17.948Z,20.50
2023-05-09T08:50:25.241Z,20.60
2023-05-09T08:54:32.181Z,20.80
2023-05-09T08:58:39.009Z,20.80
2023-05-09T09:02:46.052Z,20.80
2023-05-09T09:06:54.314Z,20.80
2023-05-09T09:11:01.014Z,20.90
2023-05-09T09:15:15.010Z,21.00
2023-05-09T09:19:26.371Z,21.00
2023-05-09T09:23:33.816Z,20.90
2023-05-09T09:27:41.940Z,20.90
2023-05-09T09:31:53.418Z,21.00
2023-05-09T09:36:00.225Z,20.90
2023-05-09T09:40:11.625Z,20.90
2023-05-09T09:44:22.596Z,20.80
2023-05-09T09:48:34.518Z,20.50
2023-05-09T09:52:55.964Z,20.90
2023-05-09T09:57:02.642Z,19.80
2023-05-09T10:01:13.702Z,19.60
2023-05-09T10:05:27.236Z,19.60
2023-05-09T10:09:35.849Z,19.80
2023-05-09T10:13:43.709Z,20.00
2023-05-09T10:17:55.449Z,20.00
2023-05-09T10:22:05.951Z,19.90
2023-05-09T10:26:22.938Z,19.60
2023-05-09T10:30:37.878Z,19.30
2023-05-09T10:34:49.858Z,19.40
2023-05-09T10:38:56.612Z,19.60
2023-05-09T10:43:03.373Z,19.50
2023-05-09T10:47:10.293Z,19.70
2023-05-09T10:51:17.503Z,19.90
2023-05-09T10:55:37.635Z,20.00
2023-05-09T10:59:45.289Z,20.30
2023-05-09T11:03:56.544Z,20.00
2023-05-09T11:08:23.690Z,21.50
2023-05-09T11:12:30.371Z,20.00
2023-05-09T11:16:57.774Z,20.10
2023-05-09T11:21:09.512Z,20.10
2023-05-09T11:25:17.087Z,20.00
2023-05-09T11:29:28.057Z,19.90
2023-05-09T11:33:36.877Z,19.80
2023-05-09T11:37:50.523Z,19.60
2023-05-09T11:41:57.793Z,19.40
2023-05-09T11:46:05.358Z,19.30
2023-05-09T11:50:14.899Z,19.20
2023-05-09T11:54:24.421Z,19.10
2023-05-09T11:58:31.411Z,19.00
2023-05-09T12:02:38.578Z,18.90
2023-05-09T12:06:48.730Z,18.70
2023-05-09T12:10:55.595Z,18.60
2023-05-09T12:15:04.696Z,18.50
2023-05-09T12:19:11.942Z,18.40
2023-05-09T12:23:19.068Z,18.50
2023-05-09T12:27:28.257Z,18.60
2023-05-09T12:31:35.290Z,18.20
2023-05-09T12:35:47.325Z,18.10
2023-05-09T12:40:02.420Z,18.20
2023-05-09T12:44:09.311Z,18.20
2023-05-09T12:48:15.946Z,18.20
2023-05-09T12:52:22.879Z,18.20
2023-05-09T12:56:34.214Z,18.20
2023-05-09T13:00:45.466Z,18.10
2023-05-09T13:05:05.677Z,18.00
2023-05-09T13:09:12.867Z,17.90
2023-05-09T13:13:20.259Z,18.00
2023-05-09T13:17:26.977Z,17.90
2023-05-09T13:21:34.882Z,17.70
2023-05-09T13:25:41.585Z,17.50
2023-05-09T13:29:48.281Z,17.40
2023-05-09T13:33:55.061Z,17.60
2023-05-09T13:38:01.754Z,17.80
2023-05-09T13:42:08.791Z,18.00
2023-05-09T13:46:15.656Z,17.70
2023-05-09T13:50:22.689Z,17.60
2023-05-09T13:54:34.859Z,17.60
2023-05-09T13:58:41.693Z,17.60
2023-05-09T14:02:48.476Z,17.50
2023-05-09T14:06:56.149Z,17.40
2023-05-09T14:11:02.922Z,17.50
2023-05-09T14:15:09.990Z,17.50
2023-05-09T14:19:17.081Z,17.50
2023-05-09T14:23:23.787Z,17.40
2023-05-09T14:27:30.521Z,17.30
2023-05-09T14:31:37.561Z,17.30
2023-05-09T14:35:44.248Z,17.40
2023-05-09T14:39:51.017Z,17.40
2023-05-09T14:43:57.967Z,17.30
2023-05-09T14:48:04.728Z,17.30
2023-05-09T14:52:11.480Z,17.20
2023-05-09T14:56:18.177Z,17.20
2023-05-09T15:00:26.032Z,17.20
2023-05-09T15:04:33.108Z,17.20
2023-05-09T15:08:39.882Z,17.20
2023-05-09T15:12:46.595Z,17.10
2023-05-09T15:16:54.003Z,17.00
2023-05-09T15:21:00.888Z,17.00
2023-05-09T15:25:08.015Z,17.00
2023-05-09T15:29:14.691Z,17.00
2023-05-09T15:33:21.406Z,15.80
2023-05-09T15:37:28.097Z,16.90
2023-05-09T15:41:34.780Z,16.80
2023-05-09T15:45:50.542Z,16.80
2023-05-09T15:49:57.215Z,16.80
2023-05-09T15:54:03.902Z,16.80
2023-05-09T15:58:11.017Z,16.80
2023-05-09T16:02:17.782Z,16.80
2023-05-09T16:06:24.505Z,16.80
2023-05-09T16:10:31.624Z,16.70
2023-05-09T16:14:38.300Z,16.60
2023-05-09T16:18:45.066Z,16.60
2023-05-09T16:22:51.722Z,16.50
2023-05-09T16:26:58.575Z,16.50
2023-05-09T16:31:05.542Z,16.50
2023-05-09T16:35:12.509Z,16.50
2023-05-09T16:39:19.221Z,16.50
2023-05-09T16:43:26.165Z,16.40
2023-05-09T16:47:32.931Z,16.40
2023-05-09T16:51:39.684Z,16.40
2023-05-09T16:55:47.237Z,16.30
2023-05-09T16:59:53.970Z,16.00
2023-05-09T17:04:01.654Z,16.40
2023-05-09T17:08:08.458Z,16.40
2023-05-09T17:12:18.005Z,16.30
2023-05-09T17:16:24.687Z,16.30
2023-05-09T17:20:31.808Z,16.20
2023-05-09T17:24:38.705Z,16.20
2023-05-09T17:28:45.407Z,16.20
2023-05-09T17:32:52.125Z,16.10
2023-05-09T17:36:58.950Z,16.20
2023-05-09T17:41:05.843Z,16.10
2023-05-09T17:45:12.590Z,16.10
2023-05-09T17:49:19.242Z,16.00
2023-05-09T17:53:26.506Z,16.00
2023-05-09T17:57:33.162Z,16.00
2023-05-09T18:01:39.862Z,15.90
2023-05-09T18:05:46.595Z,15.90
2023-05-09T18:09:53.267Z,15.80
2023-05-09T18:13:59.957Z,15.90
2023-05-09T18:18:07.634Z,15.90
2023-05-09T18:22:15.595Z,15.90
2023-05-09T18:26:22.253Z,15.90
2023-05-09T18:30:28.933Z,15.90
2023-05-09T18:34:36.042Z,15.90
2023-05-09T18:38:43.541Z,15.80
2023-05-09T18:42:50.190Z,15.80
2023-05-09T18:46:57.950Z,15.80
2023-05-09T18:51:04.801Z,15.80
2023-05-09T18:55:13.250Z,15.80
2023-05-09T18:59:19.937Z,15.80
2023-05-09T19:03:27.215Z,15.70
2023-05-09T19:07:34.925Z,15.80
2023-05-09T19:11:42.068Z,15.70
2023-05-09T19:15:48.729Z,15.70
2023-05-09T19:19:55.511Z,15.70
2023-05-09T19:24:04.661Z,15.70
2023-05-09T19:28:14.480Z,15.70
2023-05-09T19:32:21.211Z,15.60
2023-05-09T19:36:27.905Z,15.60
2023-05-09T19:40:34.953Z,15.60
2023-05-09T19:44:41.596Z,15.60
2023-05-09T19:48:48.354Z,15.50
2023-05-09T19:52:55.029Z,15.50
2023-05-09T19:57:02.024Z,15.50
2023-05-09T20:01:08.860Z,15.40
2023-05-09T20:05:15.812Z,15.40
2023-05-09T20:09:22.670Z,15.30
2023-05-09T20:13:29.369Z,15.30
2023-05-09T20:17:37.282Z,15.30
2023-05-09T20:21:44.105Z,15.20
2023-05-09T20:25:50.841Z,15.20
2023-05-09T20:29:57.618Z,15.20
2023-05-09T20:34:04.386Z,15.20
2023-05-09T20:38:11.826Z,15.10
2023-05-09T20:42:18.605Z,15.10
2023-05-09T20:46:25.759Z,15.10
2023-05-09T20:50:32.813Z,15.00
2023-05-09T20:54:39.567Z,15.10
2023-05-09T20:58:46.445Z,15.00
2023-05-09T21:02:57.540Z,15.00
2023-05-09T21:07:05.360Z,15.00
2023-05-09T21:11:12.086Z,15.00
2023-05-09T21:15:19.160Z,15.00
2023-05-09T21:19:25.951Z,15.00
2023-05-09T21:23:32.681Z,14.90
2023-05-09T21:27:39.389Z,14.90
2023-05-09T21:31:46.102Z,14.90
2023-05-09T21:35:52.799Z,14.90
2023-05-09T21:39:59.528Z,14.90
2023-05-09T21:44:07.750Z,14.90
2023-05-09T21:48:14.524Z,14.90
2023-05-09T21:52:23.427Z,14.90
2023-05-09T21:56:30.239Z,14.90
2023-05-09T22:00:36.812Z,14.80
2023-05-09T22:04:43.461Z,14.80
2023-05-09T22:08:51.068Z,14.60
2023-05-09T22:12:58.144Z,14.40
2023-05-09T22:17:06.949Z,14.20
2023-05-09T22:21:13.576Z,14.10
2023-05-09T22:25:20.159Z,13.90
2023-05-09T22:29:27.734Z,13.80
2023-05-09T22:33:34.658Z,13.70
2023-05-09T22:37:41.246Z,13.70
2023-05-09T22:41:48.118Z,13.70
2023-05-09T22:46:02.273Z,13.70
2023-05-09T22:50:09.407Z,13.60
2023-05-09T22:54:20.515Z,13.60
2023-05-09T22:58:27.209Z,13.50
2023-05-09T23:02:33.887Z,13.60
2023-05-09T23:06:40.568Z,13.60
2023-05-09T23:10:47.256Z,13.60
2023-05-09T23:14:53.895Z,13.70
2023-05-09T23:19:00.810Z,13.60
2023-05-09T23:23:07.656Z,13.50
2023-05-09T23:27:14.481Z,13.50
2023-05-09T23:31:21.592Z,13.50
2023-05-09T23:35:28.401Z,13.50
2023-05-09T23:39:35.251Z,13.50
2023-05-09T23:43:41.966Z,13.50
2023-05-09T23:47:48.775Z,13.60
2023-05-09T23:51:55.595Z,13.60
2023-05-09T23:56:03.117Z,13.60
